createdAt,value
2018-11-07T00:00:14.984Z,13.05
2018-11-07T00:00:41.112Z,13.09
2018-11-07T00:01:07.275Z,12.97
2018-11-07T00:01:33.404Z,12.97
2018-11-07T00:01:59.535Z,13
2018-11-07T00:02:25.697Z,12.87
2018-11-07T00:02:51.977Z,12.95
2018-11-07T00:03:17.958Z,12.97
2018-11-07T00:03:44.090Z,12.95
2018-11-07T00:04:10.248Z,13.05
2018-11-07T00:04:36.379Z,13.08
2018-11-07T00:05:02.556Z,13.11
2018-11-07T00:05:28.714Z,13.11
2018-11-07T00:05:54.885Z,13.12
2018-11-07T00:06:21.007Z,13.19
2018-11-07T00:06:47.192Z,13.2
2018-11-07T00:07:13.365Z,13.18
2018-11-07T00:07:39.492Z,13.12
2018-11-07T00:08:05.688Z,13.13
2018-11-07T00:08:31.849Z,13.11
2018-11-07T00:08:57.975Z,13.12
2018-11-07T00:09:24.119Z,13.11
2018-11-07T00:09:50.246Z,13.15
2018-11-07T00:10:16.402Z,13.22
2018-11-07T00:10:42.529Z,13.18
2018-11-07T00:11:08.665Z,13.18
2018-11-07T00:11:34.863Z,13.31
2018-11-07T00:12:00.998Z,13.18
2018-11-07T00:12:27.147Z,13.16
2018-11-07T00:12:53.305Z,13.16
2018-11-07T00:13:19.461Z,13.25
2018-11-07T00:13:45.589Z,13.28
2018-11-07T00:14:11.802Z,13.27
2018-11-07T00:14:37.859Z,13.27
2018-11-07T00:15:04.014Z,13.39
2018-11-07T00:15:30.143Z,13.37
2018-11-07T00:15:56.283Z,13.39
2018-11-07T00:16:22.470Z,13.41
2018-11-07T00:16:48.628Z,13.39
2018-11-07T00:17:14.754Z,13.38
2018-11-07T00:17:40.889Z,13.5
2018-11-07T00:18:07.020Z,13.52
2018-11-07T00:18:33.206Z,13.54
2018-11-07T00:18:59.339Z,13.47
2018-11-07T00:19:25.540Z,13.6
2018-11-07T00:19:51.669Z,13.6
2018-11-07T00:20:17.830Z,13.6
2018-11-07T00:20:43.949Z,13.59
2018-11-07T00:21:10.079Z,13.62
2018-11-07T00:21:36.255Z,13.57
2018-11-07T00:22:02.393Z,13.57
2018-11-07T00:22:28.541Z,13.62
2018-11-07T00:22:54.673Z,13.6
2018-11-07T00:23:20.813Z,13.56
2018-11-07T00:23:46.945Z,13.67
2018-11-07T00:24:13.141Z,13.6
2018-11-07T00:24:39.237Z,13.57
2018-11-07T00:25:05.376Z,13.65
2018-11-07T00:25:31.512Z,13.56
2018-11-07T00:25:57.673Z,13.49
2018-11-07T00:26:23.948Z,13.57
2018-11-07T00:26:50.073Z,13.63
2018-11-07T00:27:16.204Z,13.56
2018-11-07T00:27:42.335Z,13.62
2018-11-07T00:28:08.470Z,13.59
2018-11-07T00:28:34.602Z,13.53
2018-11-07T00:29:00.770Z,13.54
2018-11-07T00:29:26.888Z,13.46
2018-11-07T00:29:53.012Z,13.46
2018-11-07T00:30:19.205Z,13.6
2018-11-07T00:30:45.332Z,13.56
2018-11-07T00:31:11.462Z,13.49
2018-11-07T00:31:37.594Z,13.57
2018-11-07T00:32:03.735Z,13.5
2018-11-07T00:32:29.861Z,13.59
2018-11-07T00:32:56.004Z,13.53
2018-11-07T00:33:22.133Z,13.53
2018-11-07T00:33:48.278Z,13.52
2018-11-07T00:34:14.622Z,13.49
2018-11-07T00:34:40.755Z,13.56
2018-11-07T00:35:06.981Z,13.53
2018-11-07T00:35:33.087Z,13.5
2018-11-07T00:35:59.229Z,13.53
2018-11-07T00:36:25.608Z,13.52
2018-11-07T00:36:51.834Z,13.54
2018-11-07T00:37:17.973Z,13.53
2018-11-07T00:37:44.152Z,13.53
2018-11-07T00:38:10.287Z,13.52
2018-11-07T00:38:36.521Z,13.49
2018-11-07T00:39:02.776Z,13.53
2018-11-07T00:39:28.907Z,13.5
2018-11-07T00:39:55.039Z,13.52
2018-11-07T00:40:21.211Z,13.47
2018-11-07T00:40:47.343Z,13.42
2018-11-07T00:41:13.733Z,13.39
2018-11-07T00:41:40.038Z,13.5
2018-11-07T00:42:06.240Z,13.49
2018-11-07T00:42:32.385Z,13.41
2018-11-07T00:42:59.765Z,13.42
2018-11-07T00:43:25.909Z,13.41
2018-11-07T00:43:52.107Z,13.46
2018-11-07T00:44:18.261Z,13.38
2018-11-07T00:44:44.459Z,13.42
2018-11-07T00:45:10.783Z,13.42
2018-11-07T00:45:36.906Z,13.39
2018-11-07T00:46:03.046Z,13.3
2018-11-07T00:46:29.210Z,13.46
2018-11-07T00:46:55.668Z,13.42
2018-11-07T00:47:21.854Z,13.42
2018-11-07T00:47:48.013Z,13.49
2018-11-07T00:48:14.155Z,13.38
2018-11-07T00:48:40.365Z,13.47
2018-11-07T00:49:06.499Z,13.47
2018-11-07T00:49:32.657Z,13.44
2018-11-07T00:49:58.790Z,13.41
2018-11-07T00:50:24.921Z,13.42
2018-11-07T00:50:51.054Z,13.41
2018-11-07T00:51:17.214Z,13.42
2018-11-07T00:51:43.346Z,13.5
2018-11-07T00:52:09.524Z,13.44
2018-11-07T00:52:35.681Z,13.39
2018-11-07T00:53:01.856Z,13.44
2018-11-07T00:53:28.041Z,13.46
2018-11-07T00:53:54.165Z,13.54
2018-11-07T00:54:20.291Z,13.53
2018-11-07T00:54:46.453Z,13.46
2018-11-07T00:55:12.590Z,13.42
2018-11-07T00:55:38.750Z,13.35
2018-11-07T00:56:04.884Z,13.41
2018-11-07T00:56:31.016Z,13.42
2018-11-07T00:56:57.181Z,13.41
2018-11-07T00:57:23.301Z,13.42
2018-11-07T00:57:49.454Z,13.42
2018-11-07T00:58:15.638Z,13.35
2018-11-07T00:58:41.707Z,13.38
2018-11-07T00:59:07.841Z,13.47
2018-11-07T00:59:33.977Z,13.47
2018-11-07T01:00:00.158Z,13.39
2018-11-07T01:00:26.297Z,13.39
2018-11-07T01:00:52.424Z,13.38
2018-11-07T01:01:18.559Z,13.37
2018-11-07T01:01:44.716Z,13.33
2018-11-07T01:02:10.875Z,13.44
2018-11-07T01:02:37.002Z,13.44
2018-11-07T01:03:03.136Z,13.42
2018-11-07T01:03:29.262Z,13.53
2018-11-07T01:03:55.398Z,13.49
2018-11-07T01:04:21.560Z,13.41
2018-11-07T01:04:47.686Z,13.5
2018-11-07T01:05:13.824Z,13.53
2018-11-07T01:05:39.955Z,13.52
2018-11-07T01:06:06.089Z,13.6
2018-11-07T01:06:32.240Z,13.52
2018-11-07T01:06:58.377Z,13.53
2018-11-07T01:07:24.505Z,13.56
2018-11-07T01:07:50.637Z,13.59
2018-11-07T01:08:16.769Z,13.62
2018-11-07T01:08:42.925Z,13.54
2018-11-07T01:09:09.060Z,13.53
2018-11-07T01:09:35.231Z,13.57
2018-11-07T01:10:01.384Z,13.5
2018-11-07T01:10:27.520Z,13.59
2018-11-07T01:10:54.018Z,13.56
2018-11-07T01:11:20.174Z,13.63
2018-11-07T01:11:46.327Z,13.63
2018-11-07T01:12:12.456Z,13.65
2018-11-07T01:12:38.609Z,13.67
2018-11-07T01:13:04.734Z,13.63
2018-11-07T01:13:30.899Z,13.6
2018-11-07T01:13:57.046Z,13.67
2018-11-07T01:14:23.186Z,13.65
2018-11-07T01:14:49.324Z,13.62
2018-11-07T01:15:15.450Z,13.71
2018-11-07T01:15:41.591Z,13.67
2018-11-07T01:16:07.749Z,13.68
2018-11-07T01:16:33.915Z,13.62
2018-11-07T01:17:00.039Z,13.59
2018-11-07T01:17:26.181Z,13.6
2018-11-07T01:17:52.302Z,13.62
2018-11-07T01:18:18.437Z,13.65
2018-11-07T01:18:44.569Z,13.7
2018-11-07T01:19:10.705Z,13.71
2018-11-07T01:19:36.840Z,13.6
2018-11-07T01:20:02.971Z,13.65
2018-11-07T01:20:30.549Z,13.65
2018-11-07T01:20:56.712Z,13.68
2018-11-07T01:21:22.892Z,13.68
2018-11-07T01:21:49.040Z,13.62
2018-11-07T01:22:15.229Z,13.6
2018-11-07T01:22:41.363Z,13.57
2018-11-07T01:23:07.491Z,13.6
2018-11-07T01:23:33.642Z,13.56
2018-11-07T01:23:59.779Z,13.53
2018-11-07T01:24:25.915Z,13.47
2018-11-07T01:24:52.072Z,13.53
2018-11-07T01:25:18.224Z,13.52
2018-11-07T01:25:44.394Z,13.53
2018-11-07T01:26:10.540Z,13.54
2018-11-07T01:26:36.671Z,13.53
2018-11-07T01:27:02.802Z,13.49
2018-11-07T01:27:28.938Z,13.56
2018-11-07T01:27:55.098Z,13.52
2018-11-07T01:28:21.325Z,13.44
2018-11-07T01:28:47.381Z,13.54
2018-11-07T01:29:13.541Z,13.59
2018-11-07T01:29:39.682Z,13.53
2018-11-07T01:30:05.808Z,13.57
2018-11-07T01:30:31.936Z,13.54
2018-11-07T01:30:58.076Z,13.49
2018-11-07T01:31:24.233Z,13.54
2018-11-07T01:31:50.376Z,13.6
2018-11-07T01:32:16.538Z,13.52
2018-11-07T01:32:42.737Z,13.53
2018-11-07T01:33:08.802Z,13.52
2018-11-07T01:33:34.931Z,13.47
2018-11-07T01:34:01.069Z,13.44
2018-11-07T01:34:27.197Z,13.5
2018-11-07T01:34:53.330Z,13.5
2018-11-07T01:35:19.471Z,13.39
2018-11-07T01:35:45.597Z,13.46
2018-11-07T01:36:11.752Z,13.47
2018-11-07T01:36:37.891Z,13.49
2018-11-07T01:37:04.024Z,13.47
2018-11-07T01:37:30.181Z,13.53
2018-11-07T01:37:56.311Z,13.54
2018-11-07T01:38:22.451Z,13.52
2018-11-07T01:38:48.575Z,13.54
2018-11-07T01:39:14.731Z,13.52
2018-11-07T01:39:40.908Z,13.53
2018-11-07T01:40:07.058Z,13.5
2018-11-07T01:40:33.219Z,13.53
2018-11-07T01:40:59.353Z,13.47
2018-11-07T01:41:25.493Z,13.42
2018-11-07T01:41:51.731Z,13.53
2018-11-07T01:42:17.824Z,13.44
2018-11-07T01:42:44.001Z,13.38
2018-11-07T01:43:10.153Z,13.5
2018-11-07T01:43:36.288Z,13.46
2018-11-07T01:44:02.422Z,13.42
2018-11-07T01:44:28.572Z,13.44
2018-11-07T01:44:54.731Z,13.44
2018-11-07T01:45:20.883Z,13.37
2018-11-07T01:45:47.011Z,13.49
2018-11-07T01:46:13.195Z,13.35
2018-11-07T01:46:39.351Z,13.3
2018-11-07T01:47:05.482Z,13.22
2018-11-07T01:47:31.619Z,13.23
2018-11-07T01:47:57.769Z,13.28
2018-11-07T01:48:23.905Z,13.27
2018-11-07T01:48:50.039Z,13.28
2018-11-07T01:49:16.171Z,13.23
2018-11-07T01:49:42.301Z,13.23
2018-11-07T01:50:08.454Z,13.11
2018-11-07T01:50:34.613Z,13.13
2018-11-07T01:51:00.771Z,13.23
2018-11-07T01:51:26.898Z,13.27
2018-11-07T01:51:53.061Z,13.25
2018-11-07T01:52:19.198Z,13.25
2018-11-07T01:52:45.322Z,13.27
2018-11-07T01:53:11.451Z,13.18
2018-11-07T01:53:37.591Z,13.09
2018-11-07T01:54:03.723Z,13.22
2018-11-07T01:54:29.876Z,13.25
2018-11-07T01:54:56.014Z,13.27
2018-11-07T01:55:22.193Z,13.28
2018-11-07T01:55:48.320Z,13.22
2018-11-07T01:56:14.459Z,13.22
2018-11-07T01:56:40.590Z,13.27
2018-11-07T01:57:06.721Z,13.3
2018-11-07T01:57:32.874Z,13.25
2018-11-07T01:57:59.028Z,13.25
2018-11-07T01:58:25.181Z,13.3
2018-11-07T01:58:51.336Z,13.25
2018-11-07T01:59:17.501Z,13.3
2018-11-07T01:59:43.661Z,13.25
2018-11-07T02:00:09.795Z,13.27
2018-11-07T02:00:35.924Z,13.31
2018-11-07T02:01:02.055Z,13.28
2018-11-07T02:01:28.192Z,13.31
2018-11-07T02:01:54.432Z,13.31
2018-11-07T02:02:20.572Z,13.3
2018-11-07T02:02:46.711Z,13.35
2018-11-07T02:03:12.832Z,13.41
2018-11-07T02:03:38.965Z,13.37
2018-11-07T02:04:05.125Z,13.35
2018-11-07T02:04:31.323Z,13.44
2018-11-07T02:04:57.458Z,13.41
2018-11-07T02:05:23.589Z,13.39
2018-11-07T02:05:49.742Z,13.25
2018-11-07T02:06:15.870Z,13.3
2018-11-07T02:06:42.011Z,13.23
2018-11-07T02:07:08.162Z,13.35
2018-11-07T02:07:34.296Z,13.42
2018-11-07T02:08:00.430Z,13.38
2018-11-07T02:08:26.565Z,13.35
2018-11-07T02:08:52.701Z,13.33
2018-11-07T02:09:18.824Z,13.33
2018-11-07T02:09:44.980Z,13.35
2018-11-07T02:10:11.116Z,13.35
2018-11-07T02:10:37.264Z,13.41
2018-11-07T02:11:03.395Z,13.39
2018-11-07T02:11:29.535Z,13.37
2018-11-07T02:11:55.672Z,13.41
2018-11-07T02:12:21.790Z,13.39
2018-11-07T02:12:47.925Z,13.38
2018-11-07T02:13:14.065Z,13.38
2018-11-07T02:13:40.189Z,13.39
2018-11-07T02:14:06.351Z,13.39
2018-11-07T02:14:32.499Z,13.47
2018-11-07T02:14:58.650Z,13.39
2018-11-07T02:15:24.790Z,13.42
2018-11-07T02:15:50.937Z,13.44
2018-11-07T02:16:17.077Z,13.46
2018-11-07T02:16:43.244Z,13.38
2018-11-07T02:17:09.378Z,13.37
2018-11-07T02:17:35.530Z,13.38
2018-11-07T02:18:01.664Z,13.42
2018-11-07T02:18:27.814Z,13.37
2018-11-07T02:18:53.974Z,13.46
2018-11-07T02:19:20.111Z,13.46
2018-11-07T02:19:46.265Z,13.42
2018-11-07T02:20:12.390Z,13.46
2018-11-07T02:20:38.524Z,13.46
2018-11-07T02:21:04.659Z,13.37
2018-11-07T02:21:30.798Z,13.42
2018-11-07T02:21:56.925Z,13.44
2018-11-07T02:22:23.058Z,13.38
2018-11-07T02:22:49.191Z,13.41
2018-11-07T02:23:15.324Z,13.41
2018-11-07T02:23:41.460Z,13.39
2018-11-07T02:24:07.619Z,13.39
2018-11-07T02:24:33.745Z,13.39
2018-11-07T02:24:59.883Z,13.41
2018-11-07T02:25:26.013Z,13.41
2018-11-07T02:25:52.145Z,13.39
2018-11-07T02:26:18.358Z,13.35
2018-11-07T02:26:44.469Z,13.31
2018-11-07T02:27:10.594Z,13.39
2018-11-07T02:27:36.734Z,13.35
2018-11-07T02:28:02.908Z,13.35
2018-11-07T02:28:29.045Z,13.44
2018-11-07T02:28:55.198Z,13.38
2018-11-07T02:29:21.358Z,13.28
2018-11-07T02:29:47.485Z,13.35
2018-11-07T02:30:13.649Z,13.37
2018-11-07T02:30:39.802Z,13.31
2018-11-07T02:31:05.953Z,13.35
2018-11-07T02:31:32.112Z,13.38
2018-11-07T02:31:58.244Z,13.42
2018-11-07T02:32:24.382Z,13.39
2018-11-07T02:32:50.514Z,13.44
2018-11-07T02:33:16.658Z,13.39
2018-11-07T02:33:42.798Z,13.42
2018-11-07T02:34:08.927Z,13.5
2018-11-07T02:34:35.057Z,13.44
2018-11-07T02:35:01.247Z,13.42
2018-11-07T02:35:27.381Z,13.44
2018-11-07T02:35:53.533Z,13.47
2018-11-07T02:36:19.685Z,13.42
2018-11-07T02:36:45.845Z,13.37
2018-11-07T02:37:12.020Z,13.39
2018-11-07T02:37:38.103Z,13.44
2018-11-07T02:38:04.260Z,13.33
2018-11-07T02:38:30.413Z,13.31
2018-11-07T02:38:56.573Z,13.35
2018-11-07T02:39:22.754Z,13.31
2018-11-07T02:39:48.884Z,13.31
2018-11-07T02:40:15.021Z,13.42
2018-11-07T02:40:41.173Z,13.39
2018-11-07T02:41:07.326Z,13.46
2018-11-07T02:41:33.488Z,13.38
2018-11-07T02:41:59.768Z,13.33
2018-11-07T02:42:25.806Z,13.31
2018-11-07T02:42:51.963Z,13.41
2018-11-07T02:43:18.117Z,13.37
2018-11-07T02:43:44.249Z,13.25
2018-11-07T02:44:10.411Z,13.25
2018-11-07T02:44:36.575Z,13.3
2018-11-07T02:45:02.715Z,13.31
2018-11-07T02:45:28.845Z,13.38
2018-11-07T02:45:54.971Z,13.37
2018-11-07T02:46:21.104Z,13.38
2018-11-07T02:46:47.260Z,13.33
2018-11-07T02:47:13.394Z,13.42
2018-11-07T02:47:39.531Z,13.38
2018-11-07T02:48:05.659Z,13.42
2018-11-07T02:48:31.791Z,13.47
2018-11-07T02:48:57.936Z,13.49
2018-11-07T02:49:24.062Z,13.44
2018-11-07T02:49:50.201Z,13.38
2018-11-07T02:50:16.351Z,13.41
2018-11-07T02:50:42.524Z,13.35
2018-11-07T02:51:08.690Z,13.39
2018-11-07T02:51:34.880Z,13.38
2018-11-07T02:52:01.039Z,13.37
2018-11-07T02:52:27.171Z,13.44
2018-11-07T02:52:53.295Z,13.38
2018-11-07T02:53:19.498Z,13.44
2018-11-07T02:53:45.583Z,13.33
2018-11-07T02:54:11.758Z,13.38
2018-11-07T02:54:37.908Z,13.42
2018-11-07T02:55:04.071Z,13.31
2018-11-07T02:55:30.193Z,13.31
2018-11-07T02:55:56.340Z,13.22
2018-11-07T02:56:22.505Z,13.23
2018-11-07T02:56:48.632Z,13.27
2018-11-07T02:57:14.780Z,13.35
2018-11-07T02:57:40.950Z,13.25
2018-11-07T02:58:07.084Z,13.3
2018-11-07T02:58:33.245Z,13.3
2018-11-07T02:58:59.376Z,13.27
2018-11-07T02:59:25.549Z,13.31
2018-11-07T02:59:51.687Z,13.3
2018-11-07T03:00:17.843Z,13.27
2018-11-07T03:00:44.026Z,13.2
2018-11-07T03:01:10.187Z,13.28
2018-11-07T03:01:36.321Z,13.22
2018-11-07T03:02:02.495Z,13.27
2018-11-07T03:02:28.683Z,13.15
2018-11-07T03:02:54.874Z,13.12
2018-11-07T03:03:21.003Z,13.18
2018-11-07T03:03:47.160Z,13.28
2018-11-07T03:04:13.298Z,13.2
2018-11-07T03:04:39.476Z,13.22
2018-11-07T03:05:05.629Z,13.12
2018-11-07T03:05:31.757Z,13.13
2018-11-07T03:05:57.918Z,13.12
2018-11-07T03:06:24.053Z,13.16
2018-11-07T03:06:50.220Z,13.12
2018-11-07T03:07:16.367Z,13.16
2018-11-07T03:07:42.499Z,13.16
2018-11-07T03:08:08.628Z,13.18
2018-11-07T03:08:34.793Z,13.11
2018-11-07T03:09:00.924Z,13.15
2018-11-07T03:09:27.083Z,13.16
2018-11-07T03:09:53.262Z,13.18
2018-11-07T03:10:19.442Z,13.18
2018-11-07T03:10:45.635Z,13.2
2018-11-07T03:11:11.761Z,13.13
2018-11-07T03:11:37.891Z,13.28
2018-11-07T03:12:04.021Z,13.13
2018-11-07T03:12:30.202Z,13.2
2018-11-07T03:12:56.376Z,13.18
2018-11-07T03:13:22.511Z,13.25
2018-11-07T03:13:48.699Z,13.27
2018-11-07T03:14:14.847Z,13.27
2018-11-07T03:14:41.003Z,13.25
2018-11-07T03:15:07.160Z,13.09
2018-11-07T03:15:33.321Z,13.12
2018-11-07T03:15:59.452Z,13.12
2018-11-07T03:16:25.592Z,13.19
2018-11-07T03:16:51.719Z,13.2
2018-11-07T03:17:17.899Z,13.13
2018-11-07T03:17:44.032Z,13.13
2018-11-07T03:18:10.166Z,13.16
2018-11-07T03:18:36.314Z,13.2
2018-11-07T03:19:02.448Z,13.2
2018-11-07T03:19:28.637Z,13.2
2018-11-07T03:19:54.768Z,13.13
2018-11-07T03:20:20.922Z,13.23
2018-11-07T03:20:47.086Z,13.16
2018-11-07T03:21:13.235Z,13.12
2018-11-07T03:21:39.371Z,13.08
2018-11-07T03:22:05.534Z,13.12
2018-11-07T03:22:31.672Z,13.09
2018-11-07T03:22:57.807Z,13.03
2018-11-07T03:23:23.961Z,12.93
2018-11-07T03:23:50.101Z,13
2018-11-07T03:24:16.259Z,12.97
2018-11-07T03:24:42.402Z,12.95
2018-11-07T03:25:08.539Z,12.95
2018-11-07T03:25:34.695Z,12.98
2018-11-07T03:26:00.839Z,12.94
2018-11-07T03:26:26.957Z,12.85
2018-11-07T03:26:53.090Z,12.94
2018-11-07T03:27:19.222Z,12.91
2018-11-07T03:27:45.358Z,12.93
2018-11-07T03:28:11.534Z,12.85
2018-11-07T03:28:37.693Z,12.85
2018-11-07T03:29:03.828Z,12.82
2018-11-07T03:29:29.957Z,12.82
2018-11-07T03:29:56.107Z,12.83
2018-11-07T03:30:22.276Z,12.85
2018-11-07T03:30:48.484Z,12.75
2018-11-07T03:31:14.692Z,12.83
2018-11-07T03:31:40.849Z,12.82
2018-11-07T03:32:07.029Z,12.8
2018-11-07T03:32:33.166Z,12.82
2018-11-07T03:32:59.349Z,12.78
2018-11-07T03:33:25.479Z,12.83
2018-11-07T03:33:51.637Z,12.82
2018-11-07T03:34:17.792Z,12.75
2018-11-07T03:34:43.930Z,12.82
2018-11-07T03:35:10.088Z,12.79
2018-11-07T03:35:36.241Z,12.8
2018-11-07T03:36:02.375Z,12.85
2018-11-07T03:36:28.547Z,12.8
2018-11-07T03:36:54.700Z,12.83
2018-11-07T03:37:20.824Z,12.82
2018-11-07T03:37:46.983Z,12.85
2018-11-07T03:38:13.113Z,12.82
2018-11-07T03:38:39.242Z,12.72
2018-11-07T03:39:05.395Z,12.75
2018-11-07T03:39:31.568Z,12.8
2018-11-07T03:39:57.867Z,12.72
2018-11-07T03:40:23.829Z,12.73
2018-11-07T03:40:49.986Z,12.68
2018-11-07T03:41:16.136Z,12.87
2018-11-07T03:41:42.305Z,12.85
2018-11-07T03:42:08.462Z,12.8
2018-11-07T03:42:34.591Z,12.8
2018-11-07T03:43:00.723Z,12.83
2018-11-07T03:43:26.901Z,12.82
2018-11-07T03:43:53.057Z,12.82
2018-11-07T03:44:19.193Z,12.82
2018-11-07T03:44:45.352Z,12.83
2018-11-07T03:45:11.486Z,12.82
2018-11-07T03:45:37.615Z,12.85
2018-11-07T03:46:03.797Z,12.95
2018-11-07T03:46:29.935Z,12.93
2018-11-07T03:46:56.118Z,12.94
2018-11-07T03:47:22.234Z,12.94
2018-11-07T03:47:48.390Z,12.94
2018-11-07T03:48:14.550Z,12.87
2018-11-07T03:48:40.681Z,12.94
2018-11-07T03:49:06.842Z,12.87
2018-11-07T03:49:32.992Z,12.93
2018-11-07T03:49:59.126Z,12.97
2018-11-07T03:50:25.256Z,12.9
2018-11-07T03:50:51.389Z,12.8
2018-11-07T03:51:17.568Z,12.82
2018-11-07T03:51:43.759Z,12.83
2018-11-07T03:52:09.930Z,12.9
2018-11-07T03:52:36.092Z,12.87
2018-11-07T03:53:02.236Z,12.9
2018-11-07T03:53:28.398Z,12.87
2018-11-07T03:53:54.524Z,12.8
2018-11-07T03:54:20.664Z,12.85
2018-11-07T03:54:46.838Z,12.97
2018-11-07T03:55:12.990Z,12.86
2018-11-07T03:55:39.142Z,12.91
2018-11-07T03:56:05.280Z,12.97
2018-11-07T03:56:31.411Z,12.97
2018-11-07T03:56:57.536Z,12.87
2018-11-07T03:57:23.672Z,12.86
2018-11-07T03:57:49.804Z,12.91
2018-11-07T03:58:15.936Z,12.98
2018-11-07T03:58:42.062Z,12.87
2018-11-07T03:59:08.196Z,12.97
2018-11-07T03:59:34.325Z,12.98
2018-11-07T04:00:00.467Z,12.97
2018-11-07T04:00:26.640Z,13
2018-11-07T04:00:52.809Z,12.94
2018-11-07T04:01:18.959Z,12.97
2018-11-07T04:01:45.104Z,13
2018-11-07T04:02:11.250Z,13
2018-11-07T04:02:37.383Z,13.05
2018-11-07T04:03:03.509Z,12.97
2018-11-07T04:03:29.671Z,12.93
2018-11-07T04:03:55.844Z,12.97
2018-11-07T04:04:22.032Z,13.03
2018-11-07T04:04:48.206Z,13
2018-11-07T04:05:14.335Z,13
2018-11-07T04:05:40.523Z,12.95
2018-11-07T04:06:06.658Z,12.95
2018-11-07T04:06:32.841Z,12.94
2018-11-07T04:06:58.972Z,12.94
2018-11-07T04:07:25.114Z,13
2018-11-07T04:07:51.238Z,12.94
2018-11-07T04:08:17.428Z,12.94
2018-11-07T04:08:43.578Z,12.95
2018-11-07T04:09:09.740Z,12.93
2018-11-07T04:09:35.894Z,12.93
2018-11-07T04:10:02.039Z,12.98
2018-11-07T04:10:28.161Z,12.98
2018-11-07T04:10:54.341Z,12.95
2018-11-07T04:11:20.477Z,12.95
2018-11-07T04:11:46.629Z,13
2018-11-07T04:12:12.775Z,12.83
2018-11-07T04:12:38.921Z,12.83
2018-11-07T04:13:05.063Z,12.87
2018-11-07T04:13:31.218Z,12.85
2018-11-07T04:13:57.350Z,12.83
2018-11-07T04:14:23.482Z,12.7
2018-11-07T04:14:49.640Z,12.64
2018-11-07T04:15:15.770Z,12.61
2018-11-07T04:15:41.902Z,12.68
2018-11-07T04:16:08.042Z,12.64
2018-11-07T04:16:34.219Z,12.58
2018-11-07T04:17:00.354Z,12.58
2018-11-07T04:17:26.508Z,12.72
2018-11-07T04:17:52.663Z,12.58
2018-11-07T04:18:18.788Z,12.64
2018-11-07T04:18:44.921Z,12.62
2018-11-07T04:19:11.044Z,12.65
2018-11-07T04:19:37.173Z,12.72
2018-11-07T04:20:03.330Z,12.72
2018-11-07T04:20:29.485Z,12.72
2018-11-07T04:20:55.663Z,12.72
2018-11-07T04:21:21.839Z,12.7
2018-11-07T04:21:47.984Z,12.7
2018-11-07T04:22:14.118Z,12.75
2018-11-07T04:22:40.269Z,12.72
2018-11-07T04:23:06.405Z,12.7
2018-11-07T04:23:32.565Z,12.72
2018-11-07T04:23:58.717Z,12.78
2018-11-07T04:24:24.863Z,12.82
2018-11-07T04:24:50.997Z,12.72
2018-11-07T04:25:17.129Z,12.76
2018-11-07T04:25:43.264Z,12.65
2018-11-07T04:26:09.421Z,12.73
2018-11-07T04:26:35.569Z,12.68
2018-11-07T04:27:01.734Z,12.75
2018-11-07T04:27:27.865Z,12.68
2018-11-07T04:27:54.016Z,12.67
2018-11-07T04:28:20.166Z,12.7
2018-11-07T04:28:46.302Z,12.57
2018-11-07T04:29:12.455Z,12.68
2018-11-07T04:29:38.614Z,12.75
2018-11-07T04:30:04.744Z,12.62
2018-11-07T04:30:30.923Z,12.62
2018-11-07T04:30:57.061Z,12.67
2018-11-07T04:31:23.191Z,12.62
2018-11-07T04:31:49.328Z,12.58
2018-11-07T04:32:15.485Z,12.6
2018-11-07T04:32:41.614Z,12.64
2018-11-07T04:33:07.751Z,12.61
2018-11-07T04:33:33.954Z,12.64
2018-11-07T04:34:00.110Z,12.64
2018-11-07T04:34:26.247Z,12.64
2018-11-07T04:34:52.379Z,12.65
2018-11-07T04:35:18.515Z,12.57
2018-11-07T04:35:44.645Z,12.61
2018-11-07T04:36:10.818Z,12.62
2018-11-07T04:36:36.948Z,12.57
2018-11-07T04:37:03.090Z,12.55
2018-11-07T04:37:29.218Z,12.57
2018-11-07T04:37:55.379Z,12.62
2018-11-07T04:38:21.509Z,12.61
2018-11-07T04:38:47.672Z,12.58
2018-11-07T04:39:13.987Z,12.49
2018-11-07T04:39:40.032Z,12.58
2018-11-07T04:40:06.169Z,12.53
2018-11-07T04:40:32.293Z,12.45
2018-11-07T04:40:58.425Z,12.47
2018-11-07T04:41:24.557Z,12.55
2018-11-07T04:41:50.691Z,12.49
2018-11-07T04:42:16.850Z,12.55
2018-11-07T04:42:43.029Z,12.47
2018-11-07T04:43:09.185Z,12.47
2018-11-07T04:43:35.339Z,12.47
2018-11-07T04:44:01.474Z,12.47
2018-11-07T04:44:27.635Z,12.53
2018-11-07T04:44:53.758Z,12.53
2018-11-07T04:45:19.890Z,12.47
2018-11-07T04:45:46.047Z,12.46
2018-11-07T04:46:12.200Z,12.49
2018-11-07T04:46:38.324Z,12.53
2018-11-07T04:47:04.491Z,12.45
2018-11-07T04:47:30.623Z,12.46
2018-11-07T04:47:56.761Z,12.5
2018-11-07T04:48:22.917Z,12.47
2018-11-07T04:48:49.075Z,12.47
2018-11-07T04:49:15.201Z,12.47
2018-11-07T04:49:41.355Z,12.5
2018-11-07T04:50:07.499Z,12.53
2018-11-07T04:50:33.668Z,12.54
2018-11-07T04:50:59.805Z,12.43
2018-11-07T04:51:25.942Z,12.5
2018-11-07T04:51:52.137Z,12.46
2018-11-07T04:52:18.281Z,12.46
2018-11-07T04:52:44.408Z,12.49
2018-11-07T04:53:10.570Z,12.53
2018-11-07T04:53:36.728Z,12.53
2018-11-07T04:54:02.877Z,12.49
2018-11-07T04:54:29.005Z,12.49
2018-11-07T04:54:55.144Z,12.49
2018-11-07T04:55:21.302Z,12.45
2018-11-07T04:55:47.463Z,12.49
2018-11-07T04:56:13.591Z,12.47
2018-11-07T04:56:39.726Z,12.46
2018-11-07T04:57:05.865Z,12.58
2018-11-07T04:57:32.021Z,12.61
2018-11-07T04:57:58.157Z,12.53
2018-11-07T04:58:24.284Z,12.53
2018-11-07T04:58:50.419Z,12.57
2018-11-07T04:59:16.550Z,12.62
2018-11-07T04:59:42.687Z,12.65
2018-11-07T05:00:08.934Z,12.64
2018-11-07T05:00:35.009Z,12.61
2018-11-07T05:01:01.142Z,12.68
2018-11-07T05:01:27.277Z,12.64
2018-11-07T05:01:53.406Z,12.64
2018-11-07T05:02:19.566Z,12.7
2018-11-07T05:02:45.705Z,12.65
2018-11-07T05:03:11.831Z,12.6
2018-11-07T05:03:37.967Z,12.62
2018-11-07T05:04:04.097Z,12.55
2018-11-07T05:04:30.251Z,12.65
2018-11-07T05:04:56.379Z,12.54
2018-11-07T05:05:22.561Z,12.61
2018-11-07T05:05:48.693Z,12.58
2018-11-07T05:06:14.827Z,12.55
2018-11-07T05:06:40.985Z,12.68
2018-11-07T05:07:07.137Z,12.68
2018-11-07T05:07:33.269Z,12.65
2018-11-07T05:07:59.456Z,12.7
2018-11-07T05:08:25.594Z,12.64
2018-11-07T05:08:51.740Z,12.65
2018-11-07T05:09:17.876Z,12.65
2018-11-07T05:09:44.040Z,12.58
2018-11-07T05:10:10.171Z,12.58
2018-11-07T05:10:36.326Z,12.58
2018-11-07T05:11:02.462Z,12.65
2018-11-07T05:11:28.593Z,12.57
2018-11-07T05:11:54.730Z,12.67
2018-11-07T05:12:20.859Z,12.64
2018-11-07T05:12:46.994Z,12.7
2018-11-07T05:13:13.148Z,12.6
2018-11-07T05:13:39.285Z,12.61
2018-11-07T05:14:05.418Z,12.62
2018-11-07T05:14:31.568Z,12.7
2018-11-07T05:14:57.699Z,12.61
2018-11-07T05:15:23.829Z,12.62
2018-11-07T05:15:49.986Z,12.67
2018-11-07T05:16:16.123Z,12.62
2018-11-07T05:16:42.273Z,12.49
2018-11-07T05:17:08.476Z,12.58
2018-11-07T05:17:34.612Z,12.58
2018-11-07T05:18:00.740Z,12.55
2018-11-07T05:18:26.893Z,12.54
2018-11-07T05:18:53.027Z,12.55
2018-11-07T05:19:19.156Z,12.53
2018-11-07T05:19:45.362Z,12.5
2018-11-07T05:20:11.459Z,12.53
2018-11-07T05:20:37.621Z,12.53
2018-11-07T05:21:03.754Z,12.53
2018-11-07T05:21:29.884Z,12.45
2018-11-07T05:21:56.031Z,12.55
2018-11-07T05:22:22.159Z,12.49
2018-11-07T05:22:48.295Z,12.5
2018-11-07T05:23:14.431Z,12.53
2018-11-07T05:23:40.587Z,12.49
2018-11-07T05:24:06.716Z,12.5
2018-11-07T05:24:32.851Z,12.55
2018-11-07T05:24:58.981Z,12.47
2018-11-07T05:25:25.120Z,12.49
2018-11-07T05:25:51.286Z,12.5
2018-11-07T05:26:17.468Z,12.49
2018-11-07T05:26:43.535Z,12.47
2018-11-07T05:27:09.677Z,12.47
2018-11-07T05:27:35.835Z,12.5
2018-11-07T05:28:01.971Z,12.49
2018-11-07T05:28:28.119Z,12.53
2018-11-07T05:28:54.253Z,12.47
2018-11-07T05:29:20.414Z,12.49
2018-11-07T05:29:46.569Z,12.47
2018-11-07T05:30:12.704Z,12.46
2018-11-07T05:30:38.832Z,12.47
2018-11-07T05:31:04.965Z,12.58
2018-11-07T05:31:31.093Z,12.47
2018-11-07T05:31:57.292Z,12.49
2018-11-07T05:32:23.419Z,12.47
2018-11-07T05:32:49.582Z,12.46
2018-11-07T05:33:15.716Z,12.45
2018-11-07T05:33:41.855Z,12.45
2018-11-07T05:34:07.986Z,12.57
2018-11-07T05:34:34.111Z,12.53
2018-11-07T05:35:00.246Z,12.47
2018-11-07T05:35:26.409Z,12.45
2018-11-07T05:35:52.566Z,12.47
2018-11-07T05:36:18.728Z,12.47
2018-11-07T05:36:44.877Z,12.49
2018-11-07T05:37:11.033Z,12.47
2018-11-07T05:37:37.172Z,12.49
2018-11-07T05:38:03.299Z,12.46
2018-11-07T05:38:29.430Z,12.5